createdAt,value
2018-01-23T00:00:12.998Z,1018.80
2018-01-23T00:01:40.141Z,1018.80
2018-01-23T00:03:07.318Z,1018.83
2018-01-23T00:04:34.056Z,1018.81
2018-01-23T00:06:01.067Z,1018.80
2018-01-23T00:07:28.114Z,1018.81
2018-01-23T00:08:56.269Z,1018.79
2018-01-23T00:10:22.311Z,1018.80
2018-01-23T00:11:49.657Z,1018.77
2018-01-23T00:13:16.479Z,1018.83
2018-01-23T00:14:43.617Z,1018.83
2018-01-23T00:16:10.928Z,1018.86
2018-01-23T00:17:37.958Z,1018.87
2018-01-23T00:19:05.239Z,1018.90
2018-01-23T00:20:32.188Z,1018.94
2018-01-23T00:21:59.013Z,1019.02
2018-01-23T00:23:25.996Z,1019.09
2018-01-23T00:24:53.155Z,1019.09
2018-01-23T00:26:20.204Z,1019.12
2018-01-23T00:27:47.270Z,1019.14
2018-01-23T00:29:14.399Z,1019.20
2018-01-23T00:30:41.686Z,1019.27
2018-01-23T00:32:08.789Z,1019.28
2018-01-23T00:33:35.793Z,1019.33
2018-01-23T00:35:02.821Z,1019.38
2018-01-23T00:36:29.850Z,1019.46
2018-01-23T00:37:57.051Z,1019.52
2018-01-23T00:39:24.121Z,1019.59
2018-01-23T00:40:54.180Z,1019.60
2018-01-23T00:42:18.260Z,1019.65
2018-01-23T00:43:45.103Z,1019.68
2018-01-23T00:45:12.180Z,1019.68
2018-01-23T00:46:39.456Z,1019.72
2018-01-23T00:48:06.476Z,1019.70
2018-01-23T00:49:33.558Z,1019.72
2018-01-23T00:51:00.462Z,1019.74
2018-01-23T00:52:27.223Z,1019.76
2018-01-23T00:53:54.096Z,1019.80
2018-01-23T00:55:21.312Z,1019.82
2018-01-23T00:56:48.452Z,1019.85
2018-01-23T00:58:15.511Z,1019.85
2018-01-23T00:59:42.495Z,1019.87
2018-01-23T01:01:09.670Z,1019.88
2018-01-23T01:02:36.722Z,1019.90
2018-01-23T01:04:03.715Z,1019.94
2018-01-23T01:05:30.525Z,1019.98
2018-01-23T01:06:57.450Z,1019.98
2018-01-23T01:08:24.570Z,1019.98
2018-01-23T01:09:51.700Z,1019.97
2018-01-23T01:11:18.922Z,1020.01
2018-01-23T01:12:46.116Z,1020.02
2018-01-23T01:14:13.141Z,1020.04
2018-01-23T01:15:40.190Z,1020.05
2018-01-23T01:17:07.425Z,1020.07
2018-01-23T01:18:34.564Z,1020.06
2018-01-23T01:20:01.796Z,1020.05
2018-01-23T01:21:28.742Z,1020.05
2018-01-23T01:22:55.653Z,1020.07
2018-01-23T01:24:22.905Z,1020.09
2018-01-23T01:25:50.153Z,1020.13
2018-01-23T01:27:17.195Z,1020.13
2018-01-23T01:28:44.294Z,1020.12
2018-01-23T01:30:11.362Z,1020.11
2018-01-23T01:31:38.453Z,1020.12
2018-01-23T01:33:05.639Z,1020.11
2018-01-23T01:34:32.830Z,1020.14
2018-01-23T01:35:59.951Z,1020.14
2018-01-23T01:37:26.863Z,1020.13
2018-01-23T01:38:54.027Z,1020.15
2018-01-23T01:40:21.136Z,1020.15
2018-01-23T01:41:48.300Z,1020.17
2018-01-23T01:43:15.269Z,1020.21
2018-01-23T01:44:42.074Z,1020.24
2018-01-23T01:46:09.090Z,1020.28
2018-01-23T01:47:36.227Z,1020.31
2018-01-23T01:49:03.112Z,1020.34
2018-01-23T01:50:30.112Z,1020.34
2018-01-23T01:51:57.385Z,1020.37
2018-01-23T01:53:24.383Z,1020.38
2018-01-23T01:54:51.462Z,1020.38
2018-01-23T01:56:18.667Z,1020.37
2018-01-23T01:57:45.931Z,1020.40
2018-01-23T01:59:13.020Z,1020.39
2018-01-23T02:00:40.066Z,1020.39
2018-01-23T02:02:07.065Z,1020.45
2018-01-23T02:03:34.105Z,1020.49
2018-01-23T02:05:01.195Z,1020.51
2018-01-23T02:06:28.144Z,1020.54
2018-01-23T02:07:55.247Z,1020.57
2018-01-23T02:09:22.618Z,1020.60
2018-01-23T02:10:49.575Z,1020.63
2018-01-23T02:12:16.961Z,1020.64
2018-01-23T02:13:43.986Z,1020.61
2018-01-23T02:15:11.151Z,1020.58
2018-01-23T02:16:38.278Z,1020.56
2018-01-23T02:18:05.460Z,1020.57
2018-01-23T02:19:32.567Z,1020.56
2018-01-23T02:20:59.523Z,1020.52
2018-01-23T02:22:26.855Z,1020.51
2018-01-23T02:23:53.787Z,1020.57
2018-01-23T02:25:20.917Z,1020.62
2018-01-23T02:26:48.082Z,1020.67
2018-01-23T02:28:15.111Z,1020.68
2018-01-23T02:29:42.027Z,1020.69
2018-01-23T02:31:09.195Z,1020.69
2018-01-23T02:32:36.253Z,1020.68
2018-01-23T02:34:03.405Z,1020.69
2018-01-23T02:35:30.268Z,1020.71
2018-01-23T02:36:57.505Z,1020.75
2018-01-23T02:38:24.710Z,1020.76
2018-01-23T02:39:51.917Z,1020.74
2018-01-23T02:41:19.125Z,1020.73
2018-01-23T02:42:46.331Z,1020.71
2018-01-23T02:44:13.492Z,1020.69
2018-01-23T02:45:40.511Z,1020.69
2018-01-23T02:47:07.720Z,1020.71
2018-01-23T02:48:34.827Z,1020.70
2018-01-23T02:50:01.891Z,1020.70
2018-01-23T02:51:28.970Z,1020.74
2018-01-23T02:52:56.095Z,1020.77
2018-01-23T02:54:23.139Z,1020.78
2018-01-23T02:55:50.170Z,1020.79
2018-01-23T02:57:17.384Z,1020.79
2018-01-23T02:58:44.465Z,1020.77
2018-01-23T03:00:11.723Z,1020.77
2018-01-23T03:01:38.605Z,1020.80
2018-01-23T03:03:05.791Z,1020.81
2018-01-23T03:04:32.963Z,1020.84
2018-01-23T03:06:00.145Z,1020.86
2018-01-23T03:07:27.100Z,1020.92
2018-01-23T03:08:54.305Z,1020.95
2018-01-23T03:10:21.367Z,1020.98
2018-01-23T03:11:48.671Z,1020.99
2018-01-23T03:13:15.555Z,1021.01
2018-01-23T03:14:42.721Z,1021.01
2018-01-23T03:16:10.015Z,1020.98
2018-01-23T03:17:37.169Z,1021.00
2018-01-23T03:19:04.363Z,1021.03
2018-01-23T03:20:31.453Z,1021.10
2018-01-23T03:21:58.515Z,1021.17
2018-01-23T03:23:25.567Z,1021.23
2018-01-23T03:24:52.632Z,1021.26
2018-01-23T03:26:19.919Z,1021.28
2018-01-23T03:27:46.959Z,1021.26
2018-01-23T03:29:14.199Z,1021.28
2018-01-23T03:30:41.196Z,1021.31
2018-01-23T03:32:08.324Z,1021.34
2018-01-23T03:33:35.619Z,1021.33
2018-01-23T03:35:02.598Z,1021.29
2018-01-23T03:36:29.746Z,1021.25
2018-01-23T03:37:56.822Z,1021.24
2018-01-23T03:39:23.902Z,1021.24
2018-01-23T03:40:51.068Z,1021.31
2018-01-23T03:42:18.126Z,1021.36
2018-01-23T03:43:45.342Z,1021.38
2018-01-23T03:45:12.302Z,1021.42
2018-01-23T03:46:39.233Z,1021.49
2018-01-23T03:48:06.411Z,1021.55
2018-01-23T03:49:33.364Z,1021.59
2018-01-23T03:51:00.437Z,1021.59
2018-01-23T03:52:27.403Z,1021.62
2018-01-23T03:53:54.278Z,1021.59
2018-01-23T03:55:21.581Z,1021.60
2018-01-23T03:56:48.491Z,1021.64
2018-01-23T03:58:15.330Z,1021.66
2018-01-23T03:59:42.440Z,1021.63
2018-01-23T04:01:09.736Z,1021.62
2018-01-23T04:02:36.791Z,1021.61
2018-01-23T04:04:03.993Z,1021.63
2018-01-23T04:05:31.019Z,1021.62
2018-01-23T04:06:57.939Z,1021.60
2018-01-23T04:08:25.190Z,1021.59
2018-01-23T04:09:52.026Z,1021.55
2018-01-23T04:11:19.244Z,1021.52
2018-01-23T04:12:46.294Z,1021.51
2018-01-23T04:14:13.308Z,1021.52
2018-01-23T04:15:40.373Z,1021.53
2018-01-23T04:17:07.447Z,1021.58
2018-01-23T04:18:34.580Z,1021.62
2018-01-23T04:20:01.624Z,1021.67
2018-01-23T04:21:28.350Z,1021.84
2018-01-23T04:22:55.628Z,1021.99
2018-01-23T04:24:22.602Z,1022.10
2018-01-23T04:25:49.519Z,1022.14
2018-01-23T04:27:16.607Z,1022.13
2018-01-23T04:28:43.927Z,1022.08
2018-01-23T04:30:11.025Z,1022.02
2018-01-23T04:31:38.059Z,1021.95
2018-01-23T04:33:04.991Z,1021.97
2018-01-23T04:34:32.120Z,1021.93
2018-01-23T04:35:58.929Z,1021.91
2018-01-23T04:37:26.039Z,1021.93
2018-01-23T04:38:53.265Z,1022.00
2018-01-23T04:40:20.136Z,1022.06
2018-01-23T04:41:47.324Z,1022.11
2018-01-23T04:43:14.531Z,1022.09
2018-01-23T04:44:41.681Z,1022.07
2018-01-23T04:46:08.977Z,1022.10
2018-01-23T04:47:36.165Z,1022.20
2018-01-23T04:49:03.115Z,1022.25
2018-01-23T04:50:30.260Z,1022.32
2018-01-23T04:51:57.453Z,1022.33
2018-01-23T04:53:24.518Z,1022.39
2018-01-23T04:54:51.719Z,1022.46
2018-01-23T04:56:18.644Z,1022.51
2018-01-23T04:57:45.597Z,1022.53
2018-01-23T04:59:12.542Z,1022.50
2018-01-23T05:00:39.689Z,1022.47
2018-01-23T05:02:06.751Z,1022.51
2018-01-23T05:03:33.983Z,1022.58
2018-01-23T05:05:01.044Z,1022.62
2018-01-23T05:06:27.903Z,1022.62
2018-01-23T05:07:55.021Z,1022.61
2018-01-23T05:09:22.176Z,1022.63
2018-01-23T05:10:49.424Z,1022.63
2018-01-23T05:12:16.625Z,1022.61
2018-01-23T05:13:43.749Z,1022.61
2018-01-23T05:15:10.847Z,1022.61
2018-01-23T05:16:37.864Z,1022.58
2018-01-23T05:18:05.113Z,1022.52
2018-01-23T05:19:32.294Z,1022.52
2018-01-23T05:20:59.287Z,1022.48
2018-01-23T05:22:26.372Z,1022.49
2018-01-23T05:23:53.388Z,1022.54
2018-01-23T05:25:20.410Z,1022.58
2018-01-23T05:26:47.568Z,1022.64
2018-01-23T05:28:14.753Z,1022.71
2018-01-23T05:29:41.910Z,1022.80
2018-01-23T05:31:08.854Z,1022.82
2018-01-23T05:32:36.074Z,1022.84
2018-01-23T05:34:03.208Z,1022.81
2018-01-23T05:35:30.177Z,1022.75
2018-01-23T05:36:57.380Z,1022.71
2018-01-23T05:38:24.392Z,1022.70
2018-01-23T05:39:51.546Z,1022.74
2018-01-23T05:41:18.764Z,1022.75
2018-01-23T05:42:45.907Z,1022.76
2018-01-23T05:44:13.069Z,1022.78
2018-01-23T05:45:40.135Z,1022.80
2018-01-23T05:47:07.181Z,1022.84
2018-01-23T05:48:34.088Z,1022.86
2018-01-23T05:50:01.297Z,1022.89
2018-01-23T05:51:28.388Z,1022.98
2018-01-23T05:52:55.620Z,1023.01
2018-01-23T05:54:22.836Z,1023.02
2018-01-23T05:55:50.048Z,1023.02
2018-01-23T05:57:17.297Z,1023.08
2018-01-23T05:58:44.447Z,1023.09
2018-01-23T06:00:11.476Z,1023.10
2018-01-23T06:01:38.677Z,1023.08
2018-01-23T06:03:05.824Z,1023.05
2018-01-23T06:04:33.037Z,1023.04
2018-01-23T06:06:00.116Z,1022.94
2018-01-23T06:07:27.394Z,1022.93
2018-01-23T06:08:54.712Z,1022.88
2018-01-23T06:10:21.884Z,1022.85
2018-01-23T06:11:48.998Z,1022.89
2018-01-23T06:13:16.125Z,1022.93
2018-01-23T06:14:43.220Z,1023.02
2018-01-23T06:16:10.293Z,1023.11
2018-01-23T06:17:37.417Z,1023.17
2018-01-23T06:19:04.507Z,1023.18
2018-01-23T06:20:31.530Z,1023.14
2018-01-23T06:21:58.524Z,1023.07
2018-01-23T06:23:25.822Z,1023.02
2018-01-23T06:24:53.121Z,1022.99
2018-01-23T06:26:20.145Z,1022.93
2018-01-23T06:27:47.256Z,1022.92
2018-01-23T06:29:14.473Z,1022.92
2018-01-23T06:30:41.628Z,1022.92
2018-01-23T06:32:08.619Z,1022.95
2018-01-23T06:33:35.547Z,1022.97
2018-01-23T06:35:02.735Z,1023.01
2018-01-23T06:36:29.468Z,1023.11
2018-01-23T06:37:56.579Z,1023.16
2018-01-23T06:39:23.831Z,1023.24
2018-01-23T06:40:51.085Z,1023.27
2018-01-23T06:42:18.182Z,1023.31
2018-01-23T06:43:45.264Z,1023.35
2018-01-23T06:45:12.433Z,1023.35
2018-01-23T06:46:39.643Z,1023.37
2018-01-23T06:48:06.744Z,1023.34
2018-01-23T06:49:33.884Z,1023.35
2018-01-23T06:51:01.041Z,1023.39
2018-01-23T06:52:27.879Z,1023.38
2018-01-23T06:53:54.865Z,1023.40
2018-01-23T06:55:21.996Z,1023.44
2018-01-23T06:56:49.290Z,1023.49
2018-01-23T06:58:16.450Z,1023.56
2018-01-23T06:59:43.660Z,1023.59
2018-01-23T07:01:10.606Z,1023.61
2018-01-23T07:02:37.698Z,1023.60
2018-01-23T07:04:04.799Z,1023.58
2018-01-23T07:05:31.861Z,1023.59
2018-01-23T07:06:58.976Z,1023.57
2018-01-23T07:08:26.110Z,1023.58
2018-01-23T07:09:53.142Z,1023.62
2018-01-23T07:11:20.363Z,1023.66
2018-01-23T07:12:47.373Z,1023.66
2018-01-23T07:14:14.596Z,1023.70
2018-01-23T07:15:41.778Z,1023.73
2018-01-23T07:17:08.876Z,1023.76
2018-01-23T07:18:36.114Z,1023.80
2018-01-23T07:20:03.344Z,1023.82
2018-01-23T07:21:30.366Z,1023.85
2018-01-23T07:22:57.736Z,1023.89
2018-01-23T07:24:24.829Z,1023.90
2018-01-23T07:25:51.861Z,1023.90
2018-01-23T07:27:21.952Z,1023.95
2018-01-23T07:28:46.190Z,1024.00
2018-01-23T07:30:13.301Z,1024.04
2018-01-23T07:31:40.483Z,1024.07
2018-01-23T07:33:07.742Z,1024.11
2018-01-23T07:34:34.888Z,1024.16
2018-01-23T07:36:02.055Z,1024.21
2018-01-23T07:37:29.004Z,1024.19
2018-01-23T07:38:55.667Z,1024.22
2018-01-23T07:40:22.758Z,1024.24
2018-01-23T07:41:49.765Z,1024.26
2018-01-23T07:43:16.459Z,1024.27
2018-01-23T07:44:43.484Z,1024.27
2018-01-23T07:46:10.479Z,1024.27
2018-01-23T07:47:37.484Z,1024.22
2018-01-23T07:49:04.371Z,1024.20
2018-01-23T07:50:31.508Z,1024.25
2018-01-23T07:51:58.357Z,1024.29
2018-01-23T07:53:25.453Z,1024.31
2018-01-23T07:54:52.433Z,1024.35
2018-01-23T07:56:19.580Z,1024.40
2018-01-23T07:57:46.346Z,1024.39
2018-01-23T07:59:13.430Z,1024.36
2018-01-23T08:00:40.497Z,1024.37
2018-01-23T08:02:07.413Z,1024.38
2018-01-23T08:03:34.527Z,1024.40
2018-01-23T08:05:01.410Z,1024.40
2018-01-23T08:06:28.505Z,1024.45
2018-01-23T08:07:55.641Z,1024.52
2018-01-23T08:09:22.782Z,1024.53
2018-01-23T08:10:49.833Z,1024.54
2018-01-23T08:12:17.066Z,1024.53
2018-01-23T08:13:44.055Z,1024.51
2018-01-23T08:15:11.241Z,1024.52
2018-01-23T08:16:38.408Z,1024.55
2018-01-23T08:18:05.455Z,1024.57
2018-01-23T08:19:32.597Z,1024.54
2018-01-23T08:20:59.465Z,1024.53
2018-01-23T08:22:26.046Z,1024.51
2018-01-23T08:23:53.280Z,1024.46
2018-01-23T08:25:20.155Z,1024.46
2018-01-23T08:26:47.442Z,1024.50
2018-01-23T08:28:14.511Z,1024.53
2018-01-23T08:29:41.642Z,1024.55
2018-01-23T08:31:08.830Z,1024.53
2018-01-23T08:32:36.051Z,1024.55
2018-01-23T08:34:03.166Z,1024.56
2018-01-23T08:35:30.174Z,1024.55
2018-01-23T08:36:57.429Z,1024.51
2018-01-23T08:38:24.337Z,1024.50
2018-01-23T08:39:51.636Z,1024.46
2018-01-23T08:41:18.813Z,1024.46
2018-01-23T08:42:46.036Z,1024.48
2018-01-23T08:44:12.914Z,1024.51
2018-01-23T08:45:40.078Z,1024.56
2018-01-23T08:47:07.210Z,1024.62
2018-01-23T08:48:34.344Z,1024.66
2018-01-23T08:50:01.230Z,1024.68
2018-01-23T08:51:28.336Z,1024.69
2018-01-23T08:52:55.511Z,1024.70
2018-01-23T08:54:22.321Z,1024.71
2018-01-23T08:55:49.598Z,1024.75
2018-01-23T08:57:16.894Z,1024.79
2018-01-23T08:58:44.081Z,1024.82
2018-01-23T09:00:11.219Z,1024.85
2018-01-23T09:01:38.480Z,1024.86
2018-01-23T09:03:05.771Z,1024.84
2018-01-23T09:04:32.682Z,1024.81
2018-01-23T09:05:59.699Z,1024.83
2018-01-23T09:07:26.818Z,1024.89
2018-01-23T09:08:53.836Z,1024.92
2018-01-23T09:10:20.793Z,1024.94
2018-01-23T09:11:48.033Z,1024.96
2018-01-23T09:13:15.240Z,1024.95
2018-01-23T09:14:42.554Z,1024.96
2018-01-23T09:16:09.659Z,1024.91
2018-01-23T09:17:36.876Z,1024.85
2018-01-23T09:19:04.075Z,1024.79
2018-01-23T09:20:31.256Z,1024.83
2018-01-23T09:21:58.190Z,1024.86
2018-01-23T09:23:25.350Z,1024.89
2018-01-23T09:24:52.677Z,1024.88
2018-01-23T09:26:19.867Z,1024.87
2018-01-23T09:27:46.998Z,1024.85
2018-01-23T09:29:13.990Z,1024.83
2018-01-23T09:30:41.133Z,1024.86
2018-01-23T09:32:08.238Z,1024.93
2018-01-23T09:33:35.245Z,1024.95
2018-01-23T09:35:02.141Z,1024.99
2018-01-23T09:36:29.265Z,1025.02
2018-01-23T09:37:56.437Z,1024.99
2018-01-23T09:39:23.530Z,1025.00
2018-01-23T09:40:50.667Z,1025.01
2018-01-23T09:42:17.831Z,1025.03
2018-01-23T09:43:45.087Z,1025.02
2018-01-23T09:45:12.396Z,1025.00
2018-01-23T09:46:39.699Z,1025.00
2018-01-23T09:48:06.728Z,1024.95
2018-01-23T09:49:33.801Z,1024.98
2018-01-23T09:51:00.899Z,1024.98
2018-01-23T09:52:27.801Z,1025.04
2018-01-23T09:53:55.009Z,1025.09
2018-01-23T09:55:22.167Z,1025.12
2018-01-23T09:56:49.158Z,1025.15
2018-01-23T09:58:16.403Z,1025.18
2018-01-23T09:59:43.486Z,1025.18
2018-01-23T10:01:10.708Z,1025.16
2018-01-23T10:02:37.785Z,1025.18
2018-01-23T10:04:04.928Z,1025.16
2018-01-23T10:05:31.945Z,1025.15
2018-01-23T10:06:58.998Z,1025.13
2018-01-23T10:08:26.103Z,1025.13
2018-01-23T10:09:53.150Z,1025.15
2018-01-23T10:11:20.300Z,1025.21
2018-01-23T10:12:47.600Z,1025.15
2018-01-23T10:14:14.589Z,1025.10
2018-01-23T10:15:41.760Z,1025.06
2018-01-23T10:17:08.884Z,1025.04
2018-01-23T10:18:36.048Z,1025.02
2018-01-23T10:20:03.008Z,1025.04
2018-01-23T10:21:30.131Z,1025.11
2018-01-23T10:22:57.298Z,1025.17
2018-01-23T10:24:24.448Z,1025.17
2018-01-23T10:25:51.531Z,1025.15
2018-01-23T10:27:18.736Z,1025.13
2018-01-23T10:28:45.868Z,1025.14
2018-01-23T10:30:12.883Z,1025.18
2018-01-23T10:31:40.004Z,1025.17
2018-01-23T10:33:07.200Z,1025.14
2018-01-23T10:34:34.112Z,1025.14
2018-01-23T10:36:01.188Z,1025.17
2018-01-23T10:37:28.110Z,1025.19
2018-01-23T10:38:55.341Z,1025.18
2018-01-23T10:40:22.404Z,1025.16
2018-01-23T10:41:49.613Z,1025.17
2018-01-23T10:43:16.788Z,1025.13
2018-01-23T10:44:43.994Z,1025.12
2018-01-23T10:46:11.155Z,1025.10
2018-01-23T10:47:38.241Z,1025.06
2018-01-23T10:49:05.236Z,1025.04
2018-01-23T10:50:32.345Z,1025.03
2018-01-23T10:51:59.576Z,1025.01
2018-01-23T10:53:26.777Z,1024.98
2018-01-23T10:54:53.717Z,1024.95
2018-01-23T10:56:21.015Z,1024.94
2018-01-23T10:57:48.231Z,1024.96
2018-01-23T10:59:15.354Z,1024.94
2018-01-23T11:00:42.467Z,1024.93
2018-01-23T11:02:09.704Z,1024.99
2018-01-23T11:03:36.886Z,1024.96
2018-01-23T11:05:04.007Z,1024.95
2018-01-23T11:06:31.001Z,1024.99
2018-01-23T11:07:57.986Z,1024.99
2018-01-23T11:09:25.169Z,1024.95
2018-01-23T11:10:52.372Z,1024.96
2018-01-23T11:12:19.305Z,1024.93
2018-01-23T11:13:46.502Z,1024.93
2018-01-23T11:15:13.178Z,1024.94
2018-01-23T11:16:40.315Z,1024.94
2018-01-23T11:18:07.570Z,1024.93
2018-01-23T11:19:34.691Z,1024.93
2018-01-23T11:21:01.717Z,1024.89
2018-01-23T11:22:28.607Z,1024.87
2018-01-23T11:23:55.846Z,1024.84
2018-01-23T11:25:23.170Z,1024.85
2018-01-23T11:26:50.417Z,1024.84
2018-01-23T11:28:17.470Z,1024.81
2018-01-23T11:29:44.670Z,1024.84
2018-01-23T11:31:11.888Z,1024.83
2018-01-23T11:32:39.108Z,1024.81
2018-01-23T11:34:06.236Z,1024.79
2018-01-23T11:35:33.361Z,1024.81
2018-01-23T11:37:00.492Z,1024.82
2018-01-23T11:38:27.830Z,1024.79
2018-01-23T11:39:55.117Z,1024.76
2018-01-23T11:41:22.257Z,1024.76
2018-01-23T11:42:49.407Z,1024.76
2018-01-23T11:44:16.564Z,1024.76
2018-01-23T11:45:43.615Z,1024.74
2018-01-23T11:47:10.606Z,1024.70
2018-01-23T11:48:37.789Z,1024.70
2018-01-23T11:50:05.013Z,1024.67
2018-01-23T11:51:32.096Z,1024.69
2018-01-23T11:52:59.173Z,1024.69
2018-01-23T11:54:26.385Z,1024.64
2018-01-23T11:55:53.607Z,1024.58
2018-01-23T11:57:20.894Z,1024.56
2018-01-23T11:58:47.674Z,1024.51
2018-01-23T12:00:14.888Z,1024.48
2018-01-23T12:01:42.089Z,1024.49
2018-01-23T12:03:09.292Z,1024.48
2018-01-23T12:04:36.431Z,1024.46
2018-01-23T12:06:03.573Z,1024.45
2018-01-23T12:07:30.173Z,1024.45
2018-01-23T12:08:57.480Z,1024.43
2018-01-23T12:10:24.726Z,1024.41
2018-01-23T12:11:51.894Z,1024.38
2018-01-23T12:13:18.985Z,1024.34
2018-01-23T12:14:46.210Z,1024.30
2018-01-23T12:16:13.083Z,1024.32
2018-01-23T12:17:40.289Z,1024.30
2018-01-23T12:19:07.548Z,1024.25
2018-01-23T12:20:34.638Z,1024.24
2018-01-23T12:22:01.766Z,1024.23
2018-01-23T12:23:28.736Z,1024.23
2018-01-23T12:24:56.599Z,1024.28
2018-01-23T12:26:23.036Z,1024.31
2018-01-23T12:27:49.816Z,1024.21
2018-01-23T12:29:17.166Z,1024.25
2018-01-23T12:30:44.355Z,1024.28
2018-01-23T12:32:11.051Z,1024.22
2018-01-23T12:33:38.279Z,1024.23
2018-01-23T12:35:05.226Z,1024.16
2018-01-23T12:36:32.562Z,1024.19
2018-01-23T12:37:59.334Z,1024.18
2018-01-23T12:39:26.634Z,1024.13
2018-01-23T12:40:53.782Z,1024.14
2018-01-23T12:42:20.963Z,1024.20
2018-01-23T12:43:48.045Z,1024.24
2018-01-23T12:45:14.849Z,1024.29
2018-01-23T12:46:41.991Z,1024.29
2018-01-23T12:48:09.284Z,1024.29
2018-01-23T12:49:36.453Z,1024.26
2018-01-23T12:51:03.653Z,1024.21
2018-01-23T12:52:30.910Z,1024.20
2018-01-23T12:53:57.499Z,1024.21
2018-01-23T12:55:24.778Z,1024.19
2018-01-23T12:56:51.897Z,1024.14
2018-01-23T12:58:19.077Z,1024.12
2018-01-23T12:59:46.396Z,1024.11
2018-01-23T13:01:13.484Z,1024.10
2018-01-23T13:02:40.773Z,1024.12
2018-01-23T13:04:08.114Z,1024.12
2018-01-23T13:05:34.859Z,1024.16
2018-01-23T13:07:02.068Z,1024.19
2018-01-23T13:08:29.228Z,1024.19
2018-01-23T13:09:56.302Z,1024.16
2018-01-23T13:11:23.325Z,1024.13
2018-01-23T13:12:50.203Z,1024.12
2018-01-23T13:14:17.174Z,1024.10
2018-01-23T13:15:44.443Z,1024.06
2018-01-23T13:17:11.823Z,1024.01
2018-01-23T13:18:39.062Z,1024.03
2018-01-23T13:20:06.249Z,1024.03
2018-01-23T13:21:33.390Z,1024.01
2018-01-23T13:23:00.406Z,1024.00
2018-01-23T13:24:27.820Z,1023.97
2018-01-23T13:25:55.037Z,1023.99
2018-01-23T13:27:22.141Z,1023.99
2018-01-23T13:28:49.725Z,1024.05
2018-01-23T13:30:16.494Z,1024.07
2018-01-23T13:31:43.870Z,1024.09
2018-01-23T13:33:10.651Z,1024.04
2018-01-23T13:34:37.730Z,1024.06
2018-01-23T13:36:04.669Z,1024.06
2018-01-23T13:37:31.740Z,1024.07
2018-01-23T13:38:59.200Z,1024.07
2018-01-23T13:40:25.929Z,1024.09
2018-01-23T13:41:53.403Z,1024.10
2018-01-23T13:43:20.392Z,1024.14
2018-01-23T13:44:47.714Z,1024.16
2018-01-23T13:46:14.929Z,1024.19
2018-01-23T13:47:42.031Z,1024.18
2018-01-23T13:49:09.186Z,1024.17
2018-01-23T13:50:36.226Z,1024.16
2018-01-23T13:52:03.445Z,1024.13
2018-01-23T13:53:30.668Z,1024.11
2018-01-23T13:54:57.842Z,1024.12
2018-01-23T13:56:25.179Z,1024.14
2018-01-23T13:57:52.364Z,1024.19
2018-01-23T13:59:19.660Z,1024.18
2018-01-23T14:00:46.911Z,1024.15
2018-01-23T14:02:14.195Z,1024.14
2018-01-23T14:03:40.957Z,1024.13
2018-01-23T14:05:08.133Z,1024.13
2018-01-23T14:06:35.228Z,1024.08
2018-01-23T14:08:02.429Z,1024.11
2018-01-23T14:09:29.666Z,1024.12
2018-01-23T14:10:56.877Z,1024.11
2018-01-23T14:12:24.203Z,1024.09
2018-01-23T14:13:51.409Z,1024.08
2018-01-23T14:15:18.601Z,1024.12
2018-01-23T14:16:45.717Z,1024.10
2018-01-23T14:18:12.739Z,1024.09
2018-01-23T14:19:39.963Z,1024.10
2018-01-23T14:21:07.150Z,1024.05
2018-01-23T14:22:34.143Z,1024.08
2018-01-23T14:24:01.210Z,1024.07
2018-01-23T14:25:28.332Z,1024.06
2018-01-23T14:26:55.567Z,1024.07
2018-01-23T14:28:22.910Z,1024.06
2018-01-23T14:29:50.197Z,1024.08
2018-01-23T14:31:17.415Z,1024.07
2018-01-23T14:32:44.593Z,1024.08
2018-01-23T14:34:11.895Z,1024.10
2018-01-23T14:35:38.932Z,1024.09
2018-01-23T14:37:06.076Z,1024.08
2018-01-23T14:38:33.275Z,1024.07
2018-01-23T14:40:00.301Z,1024.08
2018-01-23T14:41:27.504Z,1024.06
2018-01-23T14:42:54.611Z,1024.02
2018-01-23T14:44:21.892Z,1023.99
2018-01-23T14:45:49.135Z,1023.99
2018-01-23T14:47:15.843Z,1023.96
2018-01-23T14:48:42.843Z,1023.98
2018-01-23T14:50:09.963Z,1023.96
2018-01-23T14:51:37.048Z,1023.93
2018-01-23T14:53:04.001Z,1023.90
2018-01-23T14:54:30.871Z,1023.90
2018-01-23T14:55:58.023Z,1023.90
2018-01-23T14:57:25.141Z,1023.90
2018-01-23T14:58:52.508Z,1023.88
2018-01-23T15:00:19.823Z,1023.87
2018-01-23T15:01:46.956Z,1023.89
2018-01-23T15:03:13.985Z,1023.88
2018-01-23T15:04:41.181Z,1023.86
2018-01-23T15:06:08.383Z,1023.84
2018-01-23T15:07:35.601Z,1023.86
2018-01-23T15:09:02.722Z,1023.88
2018-01-23T15:10:30.008Z,1023.83
2018-01-23T15:11:57.289Z,1023.83
2018-01-23T15:13:24.585Z,1023.79
2018-01-23T15:14:51.809Z,1023.77
2018-01-23T15:16:18.910Z,1023.73
2018-01-23T15:17:45.761Z,1023.72
2018-01-23T15:19:13.164Z,1023.68
2018-01-23T15:20:40.382Z,1023.68
2018-01-23T15:22:07.339Z,1023.69
2018-01-23T15:23:34.748Z,1023.69
2018-01-23T15:25:01.896Z,1023.65
2018-01-23T15:26:28.857Z,1023.65
2018-01-23T15:27:55.911Z,1023.64
2018-01-23T15:29:23.235Z,1023.58
2018-01-23T15:30:50.387Z,1023.61
2018-01-23T15:32:17.610Z,1023.60
2018-01-23T15:33:44.668Z,1023.58
2018-01-23T15:35:11.822Z,1023.58
2018-01-23T15:36:38.960Z,1023.60
2018-01-23T15:38:06.242Z,1023.64
2018-01-23T15:39:33.375Z,1023.70
2018-01-23T15:41:00.246Z,1023.72
2018-01-23T15:42:27.506Z,1023.69
2018-01-23T15:43:54.560Z,1023.67
2018-01-23T15:45:21.705Z,1023.64
2018-01-23T15:46:48.815Z,1023.57
2018-01-23T15:48:15.972Z,1023.56
2018-01-23T15:49:43.264Z,1023.56
2018-01-23T15:51:10.564Z,1023.55
2018-01-23T15:52:37.642Z,1023.55
2018-01-23T15:54:04.567Z,1023.53
2018-01-23T15:55:31.687Z,1023.52
2018-01-23T15:56:58.858Z,1023.53
2018-01-23T15:58:26.047Z,1023.51
2018-01-23T15:59:53.118Z,1023.52
2018-01-23T16:01:20.466Z,1023.50
2018-01-23T16:02:47.639Z,1023.50
2018-01-23T16:04:14.472Z,1023.48
2018-01-23T16:05:41.552Z,1023.47
2018-01-23T16:07:08.708Z,1023.47
2018-01-23T16:08:35.805Z,1023.46
2018-01-23T16:10:02.889Z,1023.48
2018-01-23T16:11:30.092Z,1023.47
2018-01-23T16:12:57.324Z,1023.49
2018-01-23T16:14:24.373Z,1023.45
2018-01-23T16:15:51.601Z,1023.48
2018-01-23T16:17:18.694Z,1023.46
2018-01-23T16:18:45.870Z,1023.47
2018-01-23T16:20:13.105Z,1023.48
2018-01-23T16:21:40.298Z,1023.48
2018-01-23T16:23:07.543Z,1023.46
2018-01-23T16:24:34.738Z,1023.43
2018-01-23T16:26:01.964Z,1023.41
2018-01-23T16:27:29.120Z,1023.40
2018-01-23T16:28:56.439Z,1023.35
2018-01-23T16:30:23.685Z,1023.36
2018-01-23T16:31:50.803Z,1023.35
2018-01-23T16:33:17.912Z,1023.35
2018-01-23T16:34:45.161Z,1023.31
2018-01-23T16:36:12.461Z,1023.29
2018-01-23T16:37:39.577Z,1023.27
2018-01-23T16:39:06.801Z,1023.31
2018-01-23T16:40:34.033Z,1023.29
2018-01-23T16:42:01.296Z,1023.29
2018-01-23T16:43:28.283Z,1023.31
2018-01-23T16:44:55.616Z,1023.27
2018-01-23T16:46:23.011Z,1023.27
2018-01-23T16:47:49.972Z,1023.24
2018-01-23T16:49:17.239Z,1023.24
2018-01-23T16:50:44.535Z,1023.21
2018-01-23T16:52:14.637Z,1023.21
2018-01-23T16:53:38.889Z,1023.25
2018-01-23T16:55:06.082Z,1023.25
2018-01-23T16:56:33.074Z,1023.26
2018-01-23T16:58:00.344Z,1023.25
2018-01-23T16:59:27.393Z,1023.19
2018-01-23T17:00:54.390Z,1023.21
2018-01-23T17:02:21.815Z,1023.17
2018-01-23T17:03:49.262Z,1023.20
2018-01-23T17:05:15.957Z,1023.19
2018-01-23T17:06:43.251Z,1023.18
2018-01-23T17:08:10.580Z,1023.18
2018-01-23T17:09:37.809Z,1023.20
2018-01-23T17:11:04.843Z,1023.19
2018-01-23T17:12:32.046Z,1023.15
2018-01-23T17:13:58.995Z,1023.15
2018-01-23T17:15:26.176Z,1023.12
2018-01-23T17:16:53.073Z,1023.09
2018-01-23T17:18:20.229Z,1023.04
2018-01-23T17:19:47.092Z,1023.01
2018-01-23T17:21:14.323Z,1022.97
2018-01-23T17:22:40.947Z,1022.92
2018-01-23T17:24:08.141Z,1022.91
2018-01-23T17:25:35.203Z,1022.88
2018-01-23T17:27:01.947Z,1022.86
2018-01-23T17:28:28.739Z,1022.82
2018-01-23T17:29:55.952Z,1022.79
2018-01-23T17:31:23.200Z,1022.78
2018-01-23T17:32:49.996Z,1022.78